createdAt,value
2023-12-27T00:00:06.816Z,80.6
2023-12-27T00:05:08.240Z,91.3
2023-12-27T00:10:06.329Z,89.4
2023-12-27T00:15:07.038Z,95.4
2023-12-27T00:20:06.827Z,79.2
2023-12-27T00:25:06.519Z,81.7
2023-12-27T00:30:06.187Z,70.1
2023-12-27T00:35:07.043Z,105.3
2023-12-27T00:40:06.846Z,94.4
2023-12-27T00:45:06.588Z,84.1
2023-12-27T00:50:06.307Z,62.9
2023-12-27T00:55:06.989Z,62.5
2023-12-27T01:00:07.134Z,57.4
2023-12-27T01:05:06.443Z,63.4
2023-12-27T01:10:06.468Z,47.1
2023-12-27T01:15:06.377Z,34.7
2023-12-27T01:20:06.287Z,33.3
2023-12-27T01:25:06.113Z,72.4
2023-12-27T01:30:06.184Z,56.3
2023-12-27T01:35:06.224Z,70.9
2023-12-27T01:40:06.381Z,59.8
2023-12-27T01:45:06.524Z,52.5
2023-12-27T01:50:06.708Z,52.5
2023-12-27T01:55:06.655Z,50.3
2023-12-27T02:00:06.834Z,60.6
2023-12-27T02:05:06.196Z,46.4
2023-12-27T02:10:06.560Z,52.9
2023-12-27T02:15:06.609Z,49.1
2023-12-27T02:20:06.609Z,47.1
2023-12-27T02:25:06.682Z,60.3
2023-12-27T02:30:06.792Z,46.4
2023-12-27T02:35:06.348Z,43.5
2023-12-27T02:40:06.210Z,42.9
2023-12-27T02:45:06.340Z,45
2023-12-27T02:50:06.528Z,42.7
2023-12-27T02:55:06.345Z,39.8
2023-12-27T03:00:06.384Z,52.6
2023-12-27T03:05:06.175Z,42.9
2023-12-27T03:10:07.118Z,38.6
2023-12-27T03:15:06.863Z,46.3
2023-12-27T03:20:06.292Z,42.6
2023-12-27T03:25:06.325Z,38.3
2023-12-27T03:30:06.233Z,51.5
2023-12-27T03:35:06.206Z,59.8
2023-12-27T03:40:07.027Z,52.3
2023-12-27T03:45:06.186Z,60.3
2023-12-27T03:50:06.187Z,63.3
2023-12-27T03:55:06.132Z,58.3
2023-12-27T04:00:06.313Z,59.2
2023-12-27T04:05:06.928Z,34.8
2023-12-27T04:10:06.747Z,41.2
2023-12-27T04:15:06.634Z,45.7
2023-12-27T04:20:06.944Z,50
2023-12-27T04:25:06.823Z,49.3
2023-12-27T04:30:07.022Z,59.4
2023-12-27T04:35:06.986Z,50.2
2023-12-27T04:40:06.196Z,55
2023-12-27T04:45:06.926Z,78.8
2023-12-27T04:50:06.657Z,53.4
2023-12-27T04:55:06.693Z,43.4
2023-12-27T05:00:06.836Z,46.2
2023-12-27T05:05:07.020Z,33.8
2023-12-27T05:10:06.440Z,57.2
2023-12-27T05:15:06.265Z,71.8
2023-12-27T05:20:06.948Z,83.6
2023-12-27T05:25:06.693Z,53.2
2023-12-27T05:30:06.442Z,65.2
2023-12-27T05:35:06.145Z,58.4
2023-12-27T05:40:06.859Z,59
2023-12-27T05:45:06.604Z,59.3
2023-12-27T05:50:06.386Z,31.4
2023-12-27T05:55:06.111Z,32.6
2023-12-27T06:00:07.121Z,57.9
2023-12-27T06:05:06.397Z,42.8
2023-12-27T06:10:06.162Z,39.6
2023-12-27T06:15:07.015Z,34
2023-12-27T06:20:06.836Z,35.3
2023-12-27T06:25:06.788Z,58.8
2023-12-27T06:30:06.272Z,50.8
2023-12-27T06:35:07.052Z,32.8
2023-12-27T06:40:06.864Z,48.3
2023-12-27T06:45:06.659Z,47.5
2023-12-27T06:50:06.545Z,46.4
2023-12-27T06:55:06.157Z,56.7
2023-12-27T07:00:06.217Z,71.1
2023-12-27T07:05:06.642Z,104.6
2023-12-27T07:10:06.378Z,77.1
2023-12-27T07:15:06.119Z,85.3
2023-12-27T07:20:06.830Z,82.8
2023-12-27T07:25:06.593Z,58.1
2023-12-27T07:30:06.204Z,58.4
2023-12-27T07:35:07.046Z,49.8
2023-12-27T07:40:06.796Z,56.3
2023-12-27T07:45:06.297Z,82.2
2023-12-27T07:50:07.083Z,54.4
2023-12-27T07:55:06.781Z,47.2
2023-12-27T08:00:06.528Z,42.8
2023-12-27T08:05:06.911Z,44.8
2023-12-27T08:10:06.788Z,46.3
2023-12-27T08:15:06.437Z,61.8
2023-12-27T08:20:06.206Z,51.9
2023-12-27T08:25:06.917Z,62.4
2023-12-27T08:30:06.806Z,87.9
2023-12-27T08:35:06.501Z,63.7
2023-12-27T08:40:06.321Z,48.9
2023-12-27T08:45:06.911Z,52.3
2023-12-27T08:50:06.682Z,51.7
2023-12-27T08:55:06.280Z,81.7
2023-12-27T09:00:07.075Z,66.4
2023-12-27T09:05:06.392Z,71.8
2023-12-27T09:10:06.211Z,52.9
2023-12-27T09:15:06.993Z,47.8
2023-12-27T09:20:07.019Z,74.9
2023-12-27T09:25:06.725Z,89.1
2023-12-27T09:30:06.612Z,74
2023-12-27T09:35:06.325Z,70.5
2023-12-27T09:40:06.153Z,100.9
2023-12-27T09:45:06.754Z,99.9
2023-12-27T09:50:06.578Z,96
2023-12-27T09:55:06.389Z,86.2
2023-12-27T10:00:06.280Z,68.7
2023-12-27T10:05:06.538Z,97.6
2023-12-27T10:10:06.165Z,59.7
2023-12-27T10:15:06.827Z,87.2
2023-12-27T10:20:06.567Z,112.4
2023-12-27T10:25:06.296Z,84.7
2023-12-27T10:30:06.210Z,72.9
2023-12-27T10:35:06.852Z,73.1
2023-12-27T10:40:06.691Z,65.2
2023-12-27T10:45:06.324Z,57.9
2023-12-27T10:50:06.157Z,38.2
2023-12-27T10:55:07.037Z,55.7
2023-12-27T11:00:06.830Z,52.8
2023-12-27T11:05:06.200Z,62.9
2023-12-27T11:10:06.935Z,57.6
2023-12-27T11:15:06.663Z,52.6
2023-12-27T11:20:06.347Z,55.5
2023-12-27T11:25:06.176Z,43.2
2023-12-27T11:30:06.855Z,42.4
2023-12-27T11:35:06.539Z,28.2
2023-12-27T11:40:06.338Z,21.1
2023-12-27T11:45:06.971Z,38.4
2023-12-27T11:50:06.651Z,18
2023-12-27T11:55:06.264Z,23.2
2023-12-27T12:00:07.153Z,32.8
2023-12-27T12:05:06.358Z,29
2023-12-27T12:10:06.866Z,29.2
2023-12-27T12:15:06.406Z,21.8
2023-12-27T12:20:06.190Z,23.2
2023-12-27T12:25:06.942Z,16.8
2023-12-27T12:30:06.963Z,29.3
2023-12-27T12:35:06.586Z,36
2023-12-27T12:40:06.259Z,27.9
2023-12-27T12:45:06.106Z,30.6
2023-12-27T12:50:06.937Z,13.5
2023-12-27T12:55:06.658Z,19
2023-12-27T13:00:06.480Z,10.9
2023-12-27T13:05:06.889Z,17
2023-12-27T13:10:06.690Z,11.6
2023-12-27T13:15:06.416Z,13.5
2023-12-27T13:20:06.108Z,12.5
2023-12-27T13:25:06.812Z,10.8
2023-12-27T13:30:06.619Z,14
2023-12-27T13:35:06.216Z,12
2023-12-27T13:40:07.010Z,10.6
2023-12-27T13:45:06.567Z,11.1
2023-12-27T13:50:06.284Z,18.4
2023-12-27T13:55:07.099Z,15.9
2023-12-27T14:00:06.764Z,17.1
2023-12-27T14:05:06.061Z,9.1
2023-12-27T14:10:06.730Z,12.1
2023-12-27T14:15:06.361Z,16.2
2023-12-27T14:20:07.089Z,10.5
2023-12-27T14:25:06.740Z,18.1
2023-12-27T14:30:06.284Z,20.8
2023-12-27T14:35:06.981Z,21.1
2023-12-27T14:40:06.905Z,36.7
2023-12-27T14:45:06.875Z,27.1
2023-12-27T14:50:06.634Z,23.1
2023-12-27T14:55:06.707Z,41
2023-12-27T15:00:06.399Z,38.2
2023-12-27T15:05:06.939Z,36.8
2023-12-27T15:10:06.703Z,35.2
2023-12-27T15:15:06.611Z,33.9
2023-12-27T15:20:06.096Z,59.4
2023-12-27T15:25:06.782Z,35.1
2023-12-27T15:30:06.455Z,39.5
2023-12-27T15:35:06.105Z,34.4
2023-12-27T15:40:06.861Z,62.9
2023-12-27T15:45:06.484Z,86.4
2023-12-27T15:50:06.106Z,262.1
2023-12-27T15:55:06.860Z,159.2
2023-12-27T16:00:06.680Z,156.1
2023-12-27T16:05:07.009Z,189.8
2023-12-27T16:10:06.838Z,288.3
2023-12-27T16:15:06.516Z,343.6
2023-12-27T16:20:06.273Z,204.7
2023-12-27T16:25:06.991Z,164
2023-12-27T16:30:06.688Z,137.4
2023-12-27T16:35:06.199Z,123.7
2023-12-27T16:40:06.971Z,195.8
2023-12-27T16:45:06.629Z,138.9
2023-12-27T16:50:06.244Z,102.8
2023-12-27T16:55:07.001Z,106.7
2023-12-27T17:00:06.847Z,99
2023-12-27T17:05:06.163Z,96.7
2023-12-27T17:10:06.875Z,118.8
2023-12-27T17:15:06.617Z,83
2023-12-27T17:20:06.284Z,72.1
2023-12-27T17:25:07.011Z,86.7
2023-12-27T17:30:06.785Z,65.6
2023-12-27T17:35:06.624Z,68.9
2023-12-27T17:40:06.165Z,86.4
2023-12-27T17:45:06.876Z,78
2023-12-27T17:50:06.692Z,78.9
2023-12-27T17:55:06.221Z,80.3
2023-12-27T18:00:06.957Z,76.3
2023-12-27T18:05:06.305Z,98
2023-12-27T18:10:07.084Z,66.4
2023-12-27T18:15:06.851Z,73.8
2023-12-27T18:20:06.537Z,54.5
2023-12-27T18:25:06.126Z,75.9
2023-12-27T18:30:06.836Z,61.4
2023-12-27T18:35:06.618Z,79.5
2023-12-27T18:40:06.449Z,96.6
2023-12-27T18:45:06.133Z,108.7
2023-12-27T18:50:06.997Z,118.7
2023-12-27T18:55:06.856Z,48.9
2023-12-27T19:00:06.635Z,49.8
2023-12-27T19:05:06.925Z,47.4
2023-12-27T19:10:06.606Z,51
2023-12-27T19:15:06.313Z,87.3
2023-12-27T19:20:07.122Z,81.7
2023-12-27T19:25:06.766Z,100.4
2023-12-27T19:30:06.534Z,88.2
2023-12-27T19:35:06.165Z,69.1
2023-12-27T19:40:06.955Z,59.1
2023-12-27T19:45:06.870Z,77.7
2023-12-27T19:50:06.681Z,103.3
2023-12-27T19:55:06.459Z,141.1
2023-12-27T20:00:06.214Z,107.8
2023-12-27T20:05:06.685Z,119.4
2023-12-27T20:10:06.476Z,94.3
2023-12-27T20:15:06.106Z,120.1
2023-12-27T20:20:06.638Z,113.1
2023-12-27T20:25:06.155Z,112.7
2023-12-27T20:30:06.940Z,154.7
2023-12-27T20:35:06.775Z,172.4
2023-12-27T20:40:06.574Z,125
2023-12-27T20:45:06.180Z,92.1
2023-12-27T20:50:07.060Z,64.7
2023-12-27T20:55:06.681Z,66.9
2023-12-27T21:00:06.442Z,74.1
2023-12-27T21:05:06.917Z,76.4
2023-12-27T21:10:06.668Z,81.6
2023-12-27T21:15:06.455Z,98
2023-12-27T21:20:06.372Z,91.7
2023-12-27T21:25:06.097Z,83.3
2023-12-27T21:30:06.940Z,80.8
2023-12-27T21:35:06.853Z,80.2
2023-12-27T21:40:07.079Z,100.5
2023-12-27T21:45:06.686Z,101.2
2023-12-27T21:50:06.378Z,110.7
2023-12-27T21:55:06.256Z,113.7
2023-12-27T22:00:06.500Z,108.9
2023-12-27T22:05:06.956Z,116.4
2023-12-27T22:10:06.783Z,84.2
2023-12-27T22:15:06.611Z,106.6
2023-12-27T22:20:06.639Z,84.4
2023-12-27T22:25:06.407Z,89.4
2023-12-27T22:30:06.171Z,87.7
2023-12-27T22:35:07.005Z,95
2023-12-27T22:40:06.941Z,121.3
2023-12-27T22:45:06.705Z,96.8
2023-12-27T22:50:06.341Z,53.6
2023-12-27T22:55:07.026Z,40.3
2023-12-27T23:00:06.852Z,37.2
2023-12-27T23:05:06.199Z,47.6
2023-12-27T23:10:06.915Z,33.8
2023-12-27T23:15:06.657Z,49
2023-12-27T23:20:06.378Z,60.5
2023-12-27T23:25:06.156Z,127.4
2023-12-27T23:30:06.918Z,82.6
2023-12-27T23:35:06.762Z,77.7
2023-12-27T23:40:06.376Z,69
2023-12-27T23:45:06.162Z,82.4
2023-12-27T23:50:07.066Z,65.5
2023-12-27T23:55:06.893Z,108.9
